createdAt,value
2017-10-03T00:02:00.366Z,2.50
2017-10-03T00:04:28.599Z,2.30
2017-10-03T00:06:56.040Z,2.72
2017-10-03T00:09:23.480Z,2.70
2017-10-03T00:11:50.952Z,2.70
2017-10-03T00:14:18.390Z,2.53
2017-10-03T00:16:45.829Z,2.87
2017-10-03T00:19:13.291Z,2.95
2017-10-03T00:21:40.731Z,2.92
2017-10-03T00:24:08.204Z,2.40
2017-10-03T00:26:35.650Z,4.40
2017-10-03T00:29:03.113Z,3.42
2017-10-03T00:31:30.549Z,3.05
2017-10-03T00:33:58.786Z,2.80
2017-10-03T00:36:26.220Z,2.25
2017-10-03T00:38:53.664Z,2.72
2017-10-03T00:41:21.147Z,3.03
2017-10-03T00:43:48.594Z,2.60
2017-10-03T00:46:16.056Z,2.25
2017-10-03T00:48:43.499Z,3.15
2017-10-03T00:51:10.963Z,3.05
2017-10-03T00:53:38.407Z,2.75
2017-10-03T00:56:05.873Z,3.00
2017-10-03T00:58:33.332Z,3.03
2017-10-03T01:01:00.779Z,3.22
2017-10-03T01:03:28.243Z,2.72
2017-10-03T01:05:55.682Z,2.67
2017-10-03T01:08:23.145Z,2.30
2017-10-03T01:10:50.600Z,2.62
2017-10-03T01:13:18.055Z,2.53
2017-10-03T01:15:45.543Z,2.33
2017-10-03T01:18:12.988Z,2.30
2017-10-03T01:20:40.459Z,2.40
2017-10-03T01:23:07.903Z,2.33
2017-10-03T01:25:35.657Z,2.25
2017-10-03T01:28:03.127Z,1.70
2017-10-03T01:30:32.223Z,2.80
2017-10-03T01:32:59.754Z,2.22
2017-10-03T01:35:27.216Z,2.25
2017-10-03T01:38:06.453Z,2.50
2017-10-03T01:40:33.947Z,2.25
2017-10-03T01:43:01.488Z,2.22
2017-10-03T01:45:28.931Z,2.60
2017-10-03T01:47:56.384Z,2.87
2017-10-03T01:50:23.820Z,2.50
2017-10-03T01:52:51.284Z,3.00
2017-10-03T01:55:18.718Z,3.05
2017-10-03T01:57:46.175Z,2.65
2017-10-03T02:00:13.640Z,2.00
2017-10-03T02:02:41.100Z,2.95
2017-10-03T02:05:09.407Z,2.30
2017-10-03T02:07:36.867Z,2.10
2017-10-03T02:10:04.302Z,2.80
2017-10-03T02:12:31.748Z,2.28
2017-10-03T02:14:59.207Z,2.35
2017-10-03T02:17:26.675Z,2.80
2017-10-03T02:19:54.107Z,2.40
2017-10-03T02:22:21.583Z,2.15
2017-10-03T02:24:49.955Z,2.42
2017-10-03T02:27:17.395Z,2.20
2017-10-03T02:29:44.846Z,2.45
2017-10-03T02:32:12.311Z,2.92
2017-10-03T02:34:39.763Z,2.60
2017-10-03T02:37:07.312Z,2.70
2017-10-03T02:39:34.759Z,2.75
2017-10-03T02:42:02.989Z,3.20
2017-10-03T02:44:30.432Z,2.50
2017-10-03T02:46:57.885Z,3.00
2017-10-03T02:49:25.328Z,2.17
2017-10-03T02:51:52.788Z,2.50
2017-10-03T02:54:20.247Z,2.60
2017-10-03T02:56:47.714Z,2.17
2017-10-03T02:59:15.183Z,2.37
2017-10-03T03:01:42.617Z,2.50
2017-10-03T03:04:10.083Z,2.42
2017-10-03T03:06:37.527Z,2.53
2017-10-03T03:09:04.971Z,2.30
2017-10-03T03:11:32.431Z,2.78
2017-10-03T03:13:59.875Z,3.25
2017-10-03T03:16:27.335Z,2.80
2017-10-03T03:18:54.796Z,4.03
2017-10-03T03:21:22.260Z,3.05
2017-10-03T03:23:49.705Z,3.47
2017-10-03T03:26:17.180Z,3.95
2017-10-03T03:28:44.636Z,3.20
2017-10-03T03:31:12.104Z,3.10
2017-10-03T03:33:39.560Z,3.10
2017-10-03T03:36:07.020Z,3.15
2017-10-03T03:38:34.475Z,2.87
2017-10-03T03:41:01.917Z,3.00
2017-10-03T03:43:29.462Z,2.90
2017-10-03T03:45:56.903Z,3.08
2017-10-03T03:48:24.355Z,3.28
2017-10-03T03:50:51.787Z,3.03
2017-10-03T03:53:19.256Z,3.10
2017-10-03T03:55:47.483Z,3.42
2017-10-03T03:58:14.920Z,3.85
2017-10-03T04:00:42.380Z,3.70
2017-10-03T04:03:09.835Z,3.80
2017-10-03T04:05:37.296Z,2.83
2017-10-03T04:08:04.731Z,3.67
2017-10-03T04:10:32.202Z,3.55
2017-10-03T04:12:59.658Z,3.00
2017-10-03T04:15:27.130Z,2.95
2017-10-03T04:17:54.576Z,4.00
2017-10-03T04:20:22.020Z,3.40
2017-10-03T04:22:49.516Z,3.78
2017-10-03T04:25:17.024Z,4.03
2017-10-03T04:27:45.251Z,3.20
2017-10-03T04:30:12.684Z,3.47
2017-10-03T04:32:40.117Z,3.78
2017-10-03T04:35:08.191Z,3.67
2017-10-03T04:37:35.629Z,2.97
2017-10-03T04:40:03.607Z,3.50
2017-10-03T04:42:31.071Z,3.35
2017-10-03T04:44:58.512Z,3.70
2017-10-03T04:47:25.974Z,3.12
2017-10-03T04:49:53.662Z,3.67
2017-10-03T04:52:21.101Z,2.70
2017-10-03T04:54:48.547Z,2.90
2017-10-03T04:57:15.992Z,3.40
2017-10-03T04:59:44.220Z,2.53
2017-10-03T05:02:11.659Z,2.72
2017-10-03T05:04:39.119Z,2.40
2017-10-03T05:07:06.560Z,2.90
2017-10-03T05:09:34.019Z,2.37
2017-10-03T05:12:01.467Z,2.65
2017-10-03T05:14:28.903Z,2.85
2017-10-03T05:16:56.359Z,2.65
2017-10-03T05:19:24.584Z,3.00
2017-10-03T05:21:52.048Z,2.22
2017-10-03T05:24:19.483Z,2.60
2017-10-03T05:26:46.955Z,2.97
2017-10-03T05:29:15.178Z,2.70
2017-10-03T05:31:43.381Z,2.55
2017-10-03T05:34:10.840Z,2.80
2017-10-03T05:36:38.279Z,2.40
2017-10-03T05:39:05.835Z,2.30
2017-10-03T05:41:33.331Z,2.40
2017-10-03T05:44:00.787Z,1.80
2017-10-03T05:46:29.048Z,2.90
2017-10-03T05:48:56.506Z,2.15
2017-10-03T05:51:23.971Z,2.10
2017-10-03T05:53:51.412Z,2.70
2017-10-03T05:56:18.884Z,2.20
2017-10-03T05:58:47.082Z,2.42
2017-10-03T06:01:14.531Z,3.78
2017-10-03T06:03:41.989Z,2.25
2017-10-03T06:06:09.419Z,2.45
2017-10-03T06:08:36.876Z,4.37
2017-10-03T06:11:04.316Z,2.95
2017-10-03T06:13:31.772Z,2.62
2017-10-03T06:15:59.216Z,2.55
2017-10-03T06:18:27.387Z,2.20
2017-10-03T06:20:54.826Z,2.75
2017-10-03T06:23:22.271Z,2.10
2017-10-03T06:25:50.491Z,2.87
2017-10-03T06:28:18.072Z,2.15
2017-10-03T06:30:45.527Z,2.70
2017-10-03T06:33:12.987Z,3.40
2017-10-03T06:35:41.948Z,2.22
2017-10-03T06:38:09.387Z,3.35
2017-10-03T06:40:36.844Z,2.30
2017-10-03T06:43:04.987Z,3.55
2017-10-03T06:45:33.224Z,3.12
2017-10-03T06:48:00.695Z,2.65
2017-10-03T06:50:28.136Z,2.30
2017-10-03T06:52:55.627Z,2.15
2017-10-03T06:55:23.835Z,2.65
2017-10-03T06:57:51.308Z,2.70
2017-10-03T07:00:18.760Z,2.80
2017-10-03T07:02:46.204Z,3.40
2017-10-03T07:05:13.630Z,3.20
2017-10-03T07:07:41.848Z,2.95
2017-10-03T07:10:09.423Z,2.83
2017-10-03T07:12:36.872Z,2.90
2017-10-03T07:15:04.323Z,3.47
2017-10-03T07:17:31.767Z,2.80
2017-10-03T07:19:59.234Z,2.65
2017-10-03T07:22:26.690Z,3.08
2017-10-03T07:24:54.152Z,2.45
2017-10-03T07:27:21.615Z,2.65
2017-10-03T07:29:49.071Z,2.50
2017-10-03T07:32:16.537Z,3.00
2017-10-03T07:34:44.116Z,3.20
2017-10-03T07:37:11.571Z,3.10
2017-10-03T07:39:39.023Z,3.33
2017-10-03T07:42:06.487Z,3.25
2017-10-03T07:44:34.695Z,4.78
2017-10-03T07:47:02.136Z,3.17
2017-10-03T07:49:29.691Z,2.30
2017-10-03T07:51:57.984Z,4.15
2017-10-03T07:54:25.439Z,4.40
2017-10-03T07:56:52.884Z,2.35
2017-10-03T07:59:20.353Z,2.50
2017-10-03T08:01:47.808Z,3.08
2017-10-03T08:04:15.277Z,2.62
2017-10-03T08:06:42.717Z,2.60
2017-10-03T08:09:10.180Z,3.08
2017-10-03T08:11:37.666Z,2.90
2017-10-03T08:14:05.099Z,2.45
2017-10-03T08:16:32.556Z,3.60
2017-10-03T08:19:00.017Z,3.55
2017-10-03T08:21:27.467Z,2.75
2017-10-03T08:23:54.932Z,3.40
2017-10-03T08:26:22.368Z,2.83
2017-10-03T08:28:49.951Z,3.40
2017-10-03T08:31:17.390Z,5.60
2017-10-03T08:33:44.847Z,5.97
2017-10-03T08:36:12.307Z,6.20
2017-10-03T08:38:39.747Z,3.20
2017-10-03T08:41:07.239Z,3.77
2017-10-03T08:43:34.707Z,6.10
2017-10-03T08:46:02.180Z,3.50
2017-10-03T08:48:29.639Z,3.70
2017-10-03T08:50:57.101Z,3.37
2017-10-03T08:53:24.536Z,3.53
2017-10-03T08:55:52.007Z,3.53
2017-10-03T08:58:19.475Z,4.90
2017-10-03T09:00:47.702Z,5.20
2017-10-03T09:03:15.162Z,5.07
2017-10-03T09:05:42.609Z,5.07
2017-10-03T09:08:10.072Z,5.57
2017-10-03T09:10:37.523Z,5.20
2017-10-03T09:13:04.999Z,5.97
2017-10-03T09:15:32.460Z,5.27
2017-10-03T09:17:59.909Z,4.67
2017-10-03T09:20:27.519Z,5.20
2017-10-03T09:22:55.741Z,5.30
2017-10-03T09:25:23.191Z,4.80
2017-10-03T09:27:50.674Z,5.27
2017-10-03T09:30:18.138Z,5.50
2017-10-03T09:32:45.584Z,4.60
2017-10-03T09:35:13.059Z,5.67
2017-10-03T09:37:40.499Z,4.63
2017-10-03T09:40:07.983Z,5.57
2017-10-03T09:42:36.221Z,4.03
2017-10-03T09:45:03.668Z,3.33
2017-10-03T09:47:31.169Z,4.27
2017-10-03T09:49:58.604Z,4.10
2017-10-03T09:52:26.075Z,4.23
2017-10-03T09:54:54.303Z,4.37
2017-10-03T09:57:21.780Z,4.60
2017-10-03T09:59:49.313Z,4.10
2017-10-03T10:02:16.765Z,4.43
2017-10-03T10:04:44.243Z,3.27
2017-10-03T10:07:11.704Z,3.77
2017-10-03T10:09:39.160Z,3.37
2017-10-03T10:12:06.608Z,3.80
2017-10-03T10:14:34.063Z,5.63
2017-10-03T10:17:01.559Z,4.23
2017-10-03T10:19:29.794Z,4.60
2017-10-03T10:21:57.247Z,4.53
2017-10-03T10:24:24.729Z,3.67
2017-10-03T10:26:52.203Z,3.00
2017-10-03T10:29:20.417Z,3.43
2017-10-03T10:31:47.899Z,4.30
2017-10-03T10:34:15.372Z,3.63
2017-10-03T10:36:42.859Z,3.40
2017-10-03T10:39:11.220Z,3.70
2017-10-03T10:41:39.458Z,3.90
2017-10-03T10:44:06.891Z,4.47
2017-10-03T10:46:34.354Z,2.90
2017-10-03T10:49:01.831Z,3.00
2017-10-03T10:51:29.284Z,4.37
2017-10-03T10:53:56.737Z,3.30
2017-10-03T10:56:24.197Z,3.90
2017-10-03T10:58:51.659Z,4.10
2017-10-03T11:01:19.111Z,3.03
2017-10-03T11:03:47.351Z,3.87
2017-10-03T11:06:14.800Z,3.20
2017-10-03T11:08:42.259Z,3.30
2017-10-03T11:11:09.700Z,3.50
2017-10-03T11:13:37.175Z,3.83
2017-10-03T11:16:04.624Z,3.10
2017-10-03T11:18:32.120Z,2.93
2017-10-03T11:20:59.583Z,2.87
2017-10-03T11:23:38.899Z,3.47
2017-10-03T11:26:06.390Z,2.57
2017-10-03T11:28:33.860Z,3.00
2017-10-03T11:31:02.153Z,4.20
2017-10-03T11:33:30.353Z,3.80
2017-10-03T11:35:57.817Z,3.50
2017-10-03T11:38:25.264Z,6.23
2017-10-03T11:40:52.739Z,3.40
2017-10-03T11:43:20.172Z,3.10
2017-10-03T11:45:47.698Z,3.17
2017-10-03T11:48:15.929Z,2.33
2017-10-03T11:50:43.368Z,4.07
2017-10-03T11:53:10.836Z,3.20
2017-10-03T11:55:39.056Z,2.97
2017-10-03T11:58:07.263Z,2.77
2017-10-03T12:00:34.713Z,3.57
2017-10-03T12:03:02.236Z,4.57
2017-10-03T12:05:29.711Z,3.13
2017-10-03T12:07:58.035Z,2.93
2017-10-03T12:10:25.512Z,3.53
2017-10-03T12:12:52.951Z,3.50
2017-10-03T12:15:21.167Z,3.20
2017-10-03T12:17:49.385Z,2.97
2017-10-03T12:20:16.854Z,3.50
2017-10-03T12:22:44.314Z,3.30
2017-10-03T12:25:11.768Z,3.97
2017-10-03T12:27:39.226Z,2.90
2017-10-03T12:30:06.672Z,2.80
2017-10-03T12:32:34.128Z,3.53
2017-10-03T12:35:01.573Z,2.80
2017-10-03T12:37:29.035Z,2.97
2017-10-03T12:39:56.490Z,3.10
2017-10-03T12:42:23.948Z,3.00
2017-10-03T12:44:51.404Z,3.20
2017-10-03T12:47:18.856Z,3.40
2017-10-03T12:49:46.311Z,3.10
2017-10-03T12:52:13.746Z,3.50
2017-10-03T12:54:41.205Z,3.50
2017-10-03T12:57:08.643Z,3.40
2017-10-03T12:59:36.872Z,2.77
2017-10-03T13:02:04.345Z,2.93
2017-10-03T13:04:31.802Z,3.20
2017-10-03T13:06:59.340Z,3.17
2017-10-03T13:09:26.800Z,2.60
2017-10-03T13:11:54.242Z,3.30
2017-10-03T13:14:21.684Z,2.80
2017-10-03T13:16:49.140Z,3.23
2017-10-03T13:19:16.579Z,4.30
2017-10-03T13:21:44.044Z,3.60
2017-10-03T13:24:11.491Z,3.60
2017-10-03T13:26:38.961Z,2.80
2017-10-03T13:29:06.426Z,3.37
2017-10-03T13:31:33.961Z,2.50
2017-10-03T13:34:01.433Z,2.87
2017-10-03T13:36:28.871Z,3.57
2017-10-03T13:38:56.336Z,3.30
2017-10-03T13:41:23.769Z,3.40
2017-10-03T13:43:51.996Z,3.30
2017-10-03T13:46:19.464Z,4.00
2017-10-03T13:48:46.906Z,2.83
2017-10-03T13:51:14.371Z,3.33
2017-10-03T13:53:41.833Z,2.87
2017-10-03T13:56:09.288Z,2.90
2017-10-03T13:58:36.762Z,2.63
2017-10-03T14:01:04.239Z,2.83
2017-10-03T14:03:32.455Z,2.50
2017-10-03T14:05:59.935Z,2.83
2017-10-03T14:08:27.379Z,2.60
2017-10-03T14:10:55.608Z,2.80
2017-10-03T14:13:23.832Z,3.07
2017-10-03T14:15:51.818Z,2.80
2017-10-03T14:18:19.305Z,2.93
2017-10-03T14:20:46.734Z,3.10
2017-10-03T14:23:14.188Z,2.83
2017-10-03T14:25:41.720Z,3.00
2017-10-03T14:28:09.197Z,2.63
2017-10-03T14:30:36.657Z,2.70
2017-10-03T14:33:04.128Z,3.20
2017-10-03T14:35:31.595Z,2.53
2017-10-03T14:37:59.824Z,2.53
2017-10-03T14:40:27.343Z,3.13
2017-10-03T14:42:54.781Z,3.10
2017-10-03T14:45:23.028Z,2.70
2017-10-03T14:47:50.472Z,2.80
2017-10-03T14:50:17.964Z,3.23
2017-10-03T14:52:46.203Z,3.00
2017-10-03T14:55:13.659Z,3.20
2017-10-03T14:57:41.857Z,2.87
2017-10-03T15:00:09.411Z,3.37
2017-10-03T15:02:36.864Z,3.27
2017-10-03T15:05:04.327Z,3.20
2017-10-03T15:07:31.804Z,2.57
2017-10-03T15:10:00.028Z,3.23
2017-10-03T15:12:27.477Z,2.90
2017-10-03T15:14:54.950Z,2.53
2017-10-03T15:17:22.383Z,2.73
2017-10-03T15:19:49.824Z,2.80
2017-10-03T15:22:17.288Z,2.53
2017-10-03T15:24:44.729Z,5.20
2017-10-03T15:27:12.207Z,2.93
2017-10-03T15:29:40.124Z,3.13
2017-10-03T15:32:08.348Z,2.20
2017-10-03T15:34:35.809Z,2.80
2017-10-03T15:37:03.299Z,2.27
2017-10-03T15:39:30.797Z,2.40
2017-10-03T15:41:58.245Z,1.93
2017-10-03T15:44:25.708Z,2.30
2017-10-03T15:46:53.160Z,2.07
2017-10-03T15:49:20.624Z,2.40
2017-10-03T15:51:48.087Z,2.03
2017-10-03T15:54:15.548Z,2.33
2017-10-03T15:56:43.643Z,2.37
2017-10-03T15:59:11.102Z,3.53
2017-10-03T16:01:38.580Z,2.50
2017-10-03T16:04:06.009Z,2.63
2017-10-03T16:06:33.486Z,2.80
2017-10-03T16:09:00.956Z,2.63
2017-10-03T16:11:28.449Z,3.40
2017-10-03T16:13:55.908Z,1.80
2017-10-03T16:16:23.357Z,2.47
2017-10-03T16:18:50.844Z,2.00
2017-10-03T16:21:18.293Z,2.23
2017-10-03T16:23:45.757Z,2.90
2017-10-03T16:26:13.715Z,3.37
2017-10-03T16:28:41.183Z,2.23
2017-10-03T16:31:08.620Z,1.70
2017-10-03T16:33:36.096Z,2.27
2017-10-03T16:36:03.595Z,2.03
2017-10-03T16:38:31.888Z,2.50
2017-10-03T16:40:59.354Z,1.97
2017-10-03T16:43:26.789Z,2.80
2017-10-03T16:45:55.028Z,2.60
2017-10-03T16:48:22.532Z,2.33
2017-10-03T16:50:50.014Z,3.83
2017-10-03T16:53:17.523Z,2.90
2017-10-03T16:55:45.740Z,2.40
2017-10-03T16:58:13.187Z,2.93
2017-10-03T17:00:40.627Z,3.17
2017-10-03T17:03:08.096Z,3.97
2017-10-03T17:05:36.023Z,3.00
2017-10-03T17:08:03.473Z,2.60
2017-10-03T17:10:30.955Z,2.23
2017-10-03T17:12:59.172Z,2.77
2017-10-03T17:15:26.643Z,3.60
2017-10-03T17:17:54.203Z,2.90
2017-10-03T17:20:21.654Z,2.80
2017-10-03T17:22:49.091Z,3.30
2017-10-03T17:25:16.607Z,2.77
2017-10-03T17:27:44.832Z,2.83
2017-10-03T17:30:12.279Z,2.63
2017-10-03T17:32:39.763Z,2.60
2017-10-03T17:35:07.226Z,2.87
2017-10-03T17:37:34.700Z,3.40
2017-10-03T17:40:02.906Z,3.57
2017-10-03T17:42:30.403Z,3.10
2017-10-03T17:44:57.972Z,3.13
2017-10-03T17:47:25.445Z,2.77
2017-10-03T17:49:52.867Z,3.20
2017-10-03T17:52:20.363Z,3.17
2017-10-03T17:54:48.575Z,3.03
2017-10-03T17:57:16.040Z,3.43
2017-10-03T17:59:43.592Z,3.30
2017-10-03T18:02:11.032Z,3.73
2017-10-03T18:04:38.543Z,2.97
2017-10-03T18:07:06.015Z,3.47
2017-10-03T18:09:33.544Z,3.90
2017-10-03T18:12:01.062Z,3.87
2017-10-03T18:14:28.633Z,4.13
2017-10-03T18:16:56.301Z,3.70
2017-10-03T18:19:24.062Z,5.00
2017-10-03T18:21:52.539Z,4.47
2017-10-03T18:24:20.360Z,4.53
2017-10-03T18:26:48.120Z,4.00
2017-10-03T18:29:16.702Z,5.33
2017-10-03T18:31:44.470Z,4.13
2017-10-03T18:34:12.207Z,4.30
2017-10-03T18:36:39.979Z,4.67
2017-10-03T18:39:08.504Z,4.43
2017-10-03T18:41:36.351Z,4.77
2017-10-03T18:44:04.122Z,4.40
2017-10-03T18:46:31.911Z,4.60
2017-10-03T18:48:59.693Z,3.77
2017-10-03T18:51:27.500Z,4.20
2017-10-03T18:53:55.245Z,4.47
2017-10-03T18:56:23.862Z,5.00
2017-10-03T18:58:51.611Z,4.53
2017-10-03T19:01:19.364Z,4.00
2017-10-03T19:03:47.169Z,3.77
2017-10-03T19:06:14.954Z,3.20
2017-10-03T19:08:43.618Z,3.80
2017-10-03T19:11:11.334Z,4.80
2017-10-03T19:13:39.155Z,3.17
2017-10-03T19:16:06.951Z,3.30
2017-10-03T19:18:36.049Z,3.20
2017-10-03T19:21:04.618Z,3.80
2017-10-03T19:23:32.454Z,3.37
2017-10-03T19:26:00.259Z,4.77
2017-10-03T19:28:28.792Z,3.10
2017-10-03T19:30:56.539Z,2.93
2017-10-03T19:33:24.321Z,3.13
2017-10-03T19:35:52.081Z,3.50
2017-10-03T19:38:19.847Z,3.80
2017-10-03T19:40:47.611Z,4.00
2017-10-03T19:43:15.364Z,4.00
2017-10-03T19:45:43.108Z,2.80
2017-10-03T19:48:10.910Z,3.45
2017-10-03T19:50:38.657Z,3.50
2017-10-03T19:53:06.438Z,3.43
2017-10-03T19:55:34.203Z,3.20
2017-10-03T19:58:01.961Z,3.20
2017-10-03T20:00:29.744Z,3.37
2017-10-03T20:02:57.480Z,4.80
2017-10-03T20:05:25.110Z,3.43
2017-10-03T20:07:53.389Z,3.33
2017-10-03T20:10:21.642Z,3.20
2017-10-03T20:12:49.084Z,3.43
2017-10-03T20:15:16.540Z,3.27
2017-10-03T20:17:43.999Z,3.10
2017-10-03T20:20:11.457Z,3.43
2017-10-03T20:22:38.913Z,3.50
2017-10-03T20:25:06.359Z,3.47
2017-10-03T20:27:33.877Z,3.33
2017-10-03T20:30:01.336Z,2.80
2017-10-03T20:32:28.811Z,3.50
2017-10-03T20:34:56.260Z,3.45
2017-10-03T20:37:23.726Z,3.80
2017-10-03T20:39:51.184Z,3.70
2017-10-03T20:42:18.653Z,3.55
2017-10-03T20:44:46.099Z,3.03
2017-10-03T20:47:13.540Z,3.70
2017-10-03T20:49:41.003Z,3.08
2017-10-03T20:52:08.456Z,4.32
2017-10-03T20:54:35.920Z,3.42
2017-10-03T20:57:03.360Z,3.47
2017-10-03T20:59:30.824Z,2.78
2017-10-03T21:01:58.291Z,3.20
2017-10-03T21:04:25.740Z,3.65
2017-10-03T21:06:53.221Z,3.30
2017-10-03T21:09:20.682Z,3.40
2017-10-03T21:11:48.126Z,3.40
2017-10-03T21:14:15.584Z,3.25
2017-10-03T21:16:43.791Z,3.70
2017-10-03T21:19:12.017Z,3.55
2017-10-03T21:21:39.470Z,3.65
2017-10-03T21:24:06.926Z,3.40
2017-10-03T21:26:34.364Z,3.30
2017-10-03T21:29:01.839Z,4.65
2017-10-03T21:31:29.306Z,3.53
2017-10-03T21:33:56.746Z,3.70
2017-10-03T21:36:24.240Z,3.83
2017-10-03T21:38:51.683Z,4.78
2017-10-03T21:41:19.147Z,4.10
2017-10-03T21:43:46.624Z,3.85
2017-10-03T21:46:14.855Z,3.80
2017-10-03T21:48:42.320Z,3.95
2017-10-03T21:51:09.788Z,3.22
2017-10-03T21:53:37.967Z,3.37
2017-10-03T21:56:05.415Z,4.43
2017-10-03T21:58:32.883Z,3.80
2017-10-03T22:01:00.331Z,3.67
2017-10-03T22:03:27.795Z,4.85
2017-10-03T22:05:55.260Z,3.95
2017-10-03T22:08:22.711Z,4.20
2017-10-03T22:10:50.172Z,3.62
2017-10-03T22:13:17.615Z,3.62
2017-10-03T22:15:45.078Z,3.75
2017-10-03T22:18:12.525Z,3.67
2017-10-03T22:20:40.008Z,3.70
2017-10-03T22:23:08.311Z,3.92
2017-10-03T22:25:36.215Z,4.22
2017-10-03T22:28:03.672Z,3.62
2017-10-03T22:30:31.111Z,4.07
2017-10-03T22:32:58.576Z,4.72
2017-10-03T22:35:26.018Z,3.75
2017-10-03T22:37:53.460Z,4.25
2017-10-03T22:40:20.929Z,3.90
2017-10-03T22:42:48.392Z,4.28
2017-10-03T22:45:15.851Z,3.70
2017-10-03T22:47:43.315Z,3.50
2017-10-03T22:50:10.756Z,4.65
2017-10-03T22:52:38.227Z,3.95
2017-10-03T22:55:05.707Z,3.60
2017-10-03T22:57:33.165Z,3.65
2017-10-03T23:00:00.608Z,3.92
2017-10-03T23:02:28.051Z,4.37
2017-10-03T23:04:56.159Z,4.28
2017-10-03T23:07:24.387Z,4.40
2017-10-03T23:09:51.843Z,3.85
2017-10-03T23:12:19.306Z,4.32
2017-10-03T23:14:46.768Z,4.10
2017-10-03T23:17:14.229Z,3.97
2017-10-03T23:19:41.680Z,4.10
2017-10-03T23:22:09.879Z,4.20
2017-10-03T23:24:37.332Z,4.20
2017-10-03T23:27:04.787Z,4.05
2017-10-03T23:29:32.227Z,4.00
2017-10-03T23:31:59.776Z,3.65
2017-10-03T23:34:27.220Z,4.43
2017-10-03T23:36:54.698Z,3.95
2017-10-03T23:39:22.148Z,4.12
2017-10-03T23:41:49.596Z,3.67
2017-10-03T23:44:17.068Z,3.78
2017-10-03T23:46:44.528Z,3.53
2017-10-03T23:49:11.964Z,3.92
2017-10-03T23:51:39.397Z,3.42
2017-10-03T23:54:06.857Z,4.07
2017-10-03T23:56:34.380Z,4.37
2017-10-03T23:59:02.587Z,4.10
